createdAt,value
2018-01-30T00:00:22.796Z,89
2018-01-30T00:01:22.664Z,89
2018-01-30T00:02:23.019Z,90
2018-01-30T00:03:22.594Z,90
2018-01-30T00:04:23.114Z,90
2018-01-30T00:05:22.654Z,90
2018-01-30T00:06:22.633Z,90
2018-01-30T00:07:22.821Z,90
2018-01-30T00:08:22.627Z,90
2018-01-30T00:09:22.798Z,90
2018-01-30T00:10:22.872Z,90
2018-01-30T00:11:22.620Z,90
2018-01-30T00:12:22.810Z,90
2018-01-30T00:13:22.649Z,90
2018-01-30T00:14:22.824Z,90
2018-01-30T00:15:23.013Z,90
2018-01-30T00:17:23.017Z,90
2018-01-30T00:18:23.037Z,90
2018-01-30T00:19:22.851Z,90
2018-01-30T00:20:22.881Z,90
2018-01-30T00:21:22.861Z,90
2018-01-30T00:22:22.702Z,90
2018-01-30T00:23:22.812Z,90
2018-01-30T00:24:22.625Z,90
2018-01-30T00:25:22.631Z,90
2018-01-30T00:26:22.872Z,90
2018-01-30T00:27:22.678Z,90
2018-01-30T00:29:22.661Z,90
2018-01-30T00:30:22.701Z,90
2018-01-30T00:31:22.897Z,90
2018-01-30T00:32:23.097Z,90
2018-01-30T00:33:23.118Z,89
2018-01-30T00:34:22.899Z,89
2018-01-30T00:35:22.871Z,89
2018-01-30T00:36:22.672Z,89
2018-01-30T00:37:22.713Z,89
2018-01-30T00:38:22.635Z,89
2018-01-30T00:40:22.902Z,89
2018-01-30T00:41:22.746Z,89
2018-01-30T00:42:22.711Z,89
2018-01-30T00:43:22.670Z,89
2018-01-30T00:44:22.871Z,89
2018-01-30T00:45:22.845Z,89
2018-01-30T00:46:23.078Z,89
2018-01-30T00:47:22.719Z,89
2018-01-30T00:48:23.105Z,89
2018-01-30T00:49:22.685Z,89
2018-01-30T00:50:22.879Z,88
2018-01-30T00:51:23.129Z,88
2018-01-30T00:52:22.727Z,88
2018-01-30T00:53:22.775Z,89
2018-01-30T00:54:22.906Z,89
2018-01-30T00:55:23.075Z,89
2018-01-30T00:56:23.134Z,89
2018-01-30T00:57:23.134Z,89
2018-01-30T00:58:22.947Z,88
2018-01-30T00:59:22.926Z,88
2018-01-30T01:00:22.969Z,88
2018-01-30T01:01:22.743Z,89
2018-01-30T01:02:22.690Z,89
2018-01-30T01:03:22.719Z,89
2018-01-30T01:04:23.132Z,89
2018-01-30T01:05:22.739Z,89
2018-01-30T01:06:23.109Z,89
2018-01-30T01:08:23.677Z,89
2018-01-30T01:09:22.773Z,89
2018-01-30T01:10:22.759Z,89
2018-01-30T01:11:23.172Z,89
2018-01-30T01:13:22.931Z,89
2018-01-30T01:14:22.797Z,89
2018-01-30T01:16:22.781Z,89
2018-01-30T01:17:23.168Z,89
2018-01-30T01:18:22.784Z,90
2018-01-30T01:19:22.951Z,90
2018-01-30T01:20:23.242Z,90
2018-01-30T01:21:22.757Z,90
2018-01-30T01:22:23.173Z,90
2018-01-30T01:23:22.977Z,90
2018-01-30T01:24:23.150Z,90
2018-01-30T01:25:22.789Z,90
2018-01-30T01:26:22.830Z,90
2018-01-30T01:28:22.941Z,90
2018-01-30T01:29:22.808Z,90
2018-01-30T01:30:23.218Z,90
2018-01-30T01:31:22.965Z,90
2018-01-30T01:33:22.993Z,90
2018-01-30T01:34:22.968Z,91
2018-01-30T01:35:22.798Z,91
2018-01-30T01:36:23.192Z,91
2018-01-30T01:37:22.823Z,91
2018-01-30T01:38:22.952Z,91
2018-01-30T01:39:23.184Z,91
2018-01-30T01:40:23.006Z,91
2018-01-30T01:41:22.822Z,91
2018-01-30T01:43:23.150Z,91
2018-01-30T01:44:22.780Z,91
2018-01-30T01:45:22.821Z,91
2018-01-30T01:46:22.798Z,92
2018-01-30T01:47:23.226Z,92
2018-01-30T01:48:22.801Z,92
2018-01-30T01:49:22.998Z,92
2018-01-30T01:50:23.234Z,92
2018-01-30T01:51:22.839Z,92
2018-01-30T01:52:22.806Z,92
2018-01-30T01:53:22.865Z,92
2018-01-30T01:54:23.215Z,92
2018-01-30T01:55:23.039Z,92
2018-01-30T01:56:22.826Z,92
2018-01-30T01:57:22.843Z,92
2018-01-30T01:58:22.815Z,92
2018-01-30T01:59:22.806Z,92
2018-01-30T02:00:23.249Z,92
2018-01-30T02:01:22.817Z,92
2018-01-30T02:02:23.020Z,93
2018-01-30T02:03:23.027Z,93
2018-01-30T02:04:23.225Z,93
2018-01-30T02:05:22.863Z,93
2018-01-30T02:06:22.843Z,93
2018-01-30T02:08:23.287Z,93
2018-01-30T02:09:23.212Z,93
2018-01-30T02:10:22.824Z,93
2018-01-30T02:12:22.862Z,93
2018-01-30T02:13:22.895Z,93
2018-01-30T02:14:22.830Z,93
2018-01-30T02:15:22.860Z,93
2018-01-30T02:16:22.832Z,93
2018-01-30T02:17:22.954Z,93
2018-01-30T02:18:23.248Z,93
2018-01-30T02:19:23.078Z,93
2018-01-30T02:20:22.911Z,93
2018-01-30T02:21:23.054Z,93
2018-01-30T02:22:22.822Z,93
2018-01-30T02:23:23.087Z,93
2018-01-30T02:24:23.263Z,93
2018-01-30T02:25:23.059Z,93
2018-01-30T02:26:23.032Z,93
2018-01-30T02:27:22.858Z,93
2018-01-30T02:28:22.874Z,93
2018-01-30T02:29:23.078Z,93
2018-01-30T02:30:22.908Z,93
2018-01-30T02:31:23.306Z,93
2018-01-30T02:32:23.362Z,93
2018-01-30T02:33:23.016Z,93
2018-01-30T02:34:23.276Z,93
2018-01-30T02:35:22.895Z,93
2018-01-30T02:36:22.920Z,93
2018-01-30T02:37:23.344Z,93
2018-01-30T02:38:22.928Z,93
2018-01-30T02:39:23.070Z,93
2018-01-30T02:40:22.944Z,93
2018-01-30T02:41:23.349Z,93
2018-01-30T02:42:22.964Z,93
2018-01-30T02:43:23.308Z,93
2018-01-30T02:44:23.288Z,93
2018-01-30T02:45:23.272Z,93
2018-01-30T02:46:22.905Z,93
2018-01-30T02:47:22.961Z,94
2018-01-30T02:48:23.150Z,94
2018-01-30T02:49:23.344Z,94
2018-01-30T02:50:23.083Z,94
2018-01-30T02:52:22.902Z,93
2018-01-30T02:53:23.107Z,93
2018-01-30T02:54:23.393Z,93
2018-01-30T02:55:24.036Z,93
2018-01-30T02:56:23.036Z,93
2018-01-30T02:57:23.334Z,93
2018-01-30T02:58:22.983Z,93
2018-01-30T03:00:23.633Z,93
2018-01-30T03:01:22.992Z,93
2018-01-30T03:02:23.347Z,93
2018-01-30T03:03:22.977Z,93
2018-01-30T03:04:23.120Z,93
2018-01-30T03:05:22.949Z,93
2018-01-30T03:06:23.144Z,93
2018-01-30T03:07:23.018Z,93
2018-01-30T03:08:23.363Z,93
2018-01-30T03:09:23.173Z,93
2018-01-30T03:10:22.960Z,93
2018-01-30T03:11:23.181Z,93
2018-01-30T03:12:22.978Z,93
2018-01-30T03:13:22.974Z,93
2018-01-30T03:14:22.977Z,93
2018-01-30T03:15:22.981Z,92
2018-01-30T03:16:22.998Z,92
2018-01-30T03:17:23.184Z,92
2018-01-30T03:18:22.980Z,92
2018-01-30T03:19:22.968Z,92
2018-01-30T03:20:24.246Z,92
2018-01-30T03:21:23.015Z,92
2018-01-30T03:22:23.058Z,92
2018-01-30T03:23:23.376Z,92
2018-01-30T03:24:22.976Z,92
2018-01-30T03:25:23.463Z,93
2018-01-30T03:26:23.028Z,93
2018-01-30T03:27:23.164Z,93
2018-01-30T03:29:22.986Z,93
2018-01-30T03:30:23.003Z,93
2018-01-30T03:31:23.050Z,93
2018-01-30T03:32:22.987Z,93
2018-01-30T03:33:22.973Z,93
2018-01-30T03:34:23.145Z,93
2018-01-30T03:35:22.985Z,93
2018-01-30T03:37:23.395Z,93
2018-01-30T03:38:22.955Z,93
2018-01-30T03:39:23.370Z,93
2018-01-30T03:40:23.174Z,93
2018-01-30T03:41:23.162Z,93
2018-01-30T03:42:23.148Z,93
2018-01-30T03:43:23.414Z,93
2018-01-30T03:44:22.987Z,93
2018-01-30T03:45:23.197Z,93
2018-01-30T03:47:23.220Z,92
2018-01-30T03:48:22.995Z,92
2018-01-30T03:50:23.197Z,92
2018-01-30T03:51:22.987Z,92
2018-01-30T03:52:23.383Z,92
2018-01-30T03:53:23.362Z,92
2018-01-30T03:54:23.427Z,92
2018-01-30T03:56:22.992Z,92
2018-01-30T03:57:23.005Z,92
2018-01-30T03:58:23.398Z,92
2018-01-30T03:59:23.064Z,92
2018-01-30T04:00:22.996Z,92
2018-01-30T04:01:23.021Z,92
2018-01-30T04:02:23.382Z,92
2018-01-30T04:03:23.354Z,92
2018-01-30T04:04:23.054Z,92
2018-01-30T04:05:23.426Z,92
2018-01-30T04:06:23.014Z,92
2018-01-30T04:07:23.010Z,92
2018-01-30T04:08:23.241Z,92
2018-01-30T04:09:23.472Z,92
2018-01-30T04:10:23.445Z,92
2018-01-30T04:11:23.441Z,92
2018-01-30T04:12:23.024Z,92
2018-01-30T04:13:23.062Z,92
2018-01-30T04:15:23.040Z,93
2018-01-30T04:16:23.055Z,93
2018-01-30T04:17:23.436Z,93
2018-01-30T04:18:23.043Z,93
2018-01-30T04:19:23.261Z,93
2018-01-30T04:20:23.458Z,93
2018-01-30T04:21:23.464Z,93
2018-01-30T04:22:23.057Z,93
2018-01-30T04:23:23.086Z,93
2018-01-30T04:24:23.072Z,93
2018-01-30T04:25:23.049Z,93
2018-01-30T04:26:23.391Z,93
2018-01-30T04:27:23.089Z,93
2018-01-30T04:28:23.085Z,93
2018-01-30T04:29:23.104Z,93
2018-01-30T04:30:23.481Z,93
2018-01-30T04:33:23.678Z,94
2018-01-30T04:34:23.150Z,94
2018-01-30T04:35:23.105Z,94
2018-01-30T04:37:23.321Z,93
2018-01-30T04:38:23.117Z,93
2018-01-30T04:39:23.526Z,93
2018-01-30T04:40:23.135Z,93
2018-01-30T04:41:23.082Z,93
2018-01-30T04:42:23.113Z,94
2018-01-30T04:43:23.182Z,94
2018-01-30T04:44:23.129Z,94
2018-01-30T04:45:23.347Z,94
2018-01-30T04:46:23.583Z,94
2018-01-30T04:48:23.123Z,94
2018-01-30T04:49:23.317Z,94
2018-01-30T04:50:23.137Z,94
2018-01-30T04:51:23.156Z,94
2018-01-30T04:52:23.132Z,94
2018-01-30T04:53:23.326Z,94
2018-01-30T04:54:23.145Z,94
2018-01-30T04:55:23.210Z,94
2018-01-30T04:56:23.575Z,94
2018-01-30T04:57:23.344Z,94
2018-01-30T04:58:23.354Z,94
2018-01-30T04:59:23.133Z,94
2018-01-30T05:00:23.257Z,94
2018-01-30T05:01:23.364Z,94
2018-01-30T05:02:23.596Z,94
2018-01-30T05:03:23.239Z,94
2018-01-30T05:04:23.144Z,94
2018-01-30T05:05:23.746Z,93
2018-01-30T05:06:23.586Z,93
2018-01-30T05:07:23.174Z,92
2018-01-30T05:08:23.330Z,92
2018-01-30T05:09:23.164Z,92
2018-01-30T05:10:23.215Z,92
2018-01-30T05:11:23.374Z,92
2018-01-30T05:12:23.218Z,91
2018-01-30T05:13:23.189Z,91
2018-01-30T05:14:23.203Z,91
2018-01-30T05:15:23.187Z,91
2018-01-30T05:16:23.231Z,91
2018-01-30T05:17:23.209Z,90
2018-01-30T05:18:23.372Z,90
2018-01-30T05:19:23.173Z,90
2018-01-30T05:20:23.611Z,90
2018-01-30T05:21:23.255Z,90
2018-01-30T05:22:23.416Z,90
2018-01-30T05:23:23.600Z,90
2018-01-30T05:25:23.420Z,90
2018-01-30T05:26:23.253Z,90
2018-01-30T05:28:23.612Z,90
2018-01-30T05:29:23.622Z,90
2018-01-30T05:30:23.426Z,90
2018-01-30T05:31:23.692Z,90
2018-01-30T05:32:23.385Z,90
2018-01-30T05:33:23.576Z,90
2018-01-30T05:34:23.202Z,90
2018-01-30T05:35:23.203Z,90
2018-01-30T05:36:23.234Z,90
2018-01-30T05:37:23.218Z,90
2018-01-30T05:38:23.398Z,90
2018-01-30T05:39:23.247Z,90
2018-01-30T05:40:23.603Z,90
2018-01-30T05:41:23.250Z,90
2018-01-30T05:42:23.259Z,90
2018-01-30T05:43:23.625Z,90
2018-01-30T05:44:23.631Z,90
2018-01-30T05:45:23.216Z,90
2018-01-30T05:46:23.255Z,90
2018-01-30T05:47:23.275Z,90
2018-01-30T05:48:23.656Z,90
2018-01-30T05:49:23.244Z,90
2018-01-30T05:50:23.272Z,90
2018-01-30T05:51:23.454Z,90
2018-01-30T05:52:23.434Z,90
2018-01-30T05:53:23.562Z,90
2018-01-30T05:54:23.665Z,90
2018-01-30T05:55:23.262Z,90
2018-01-30T05:56:23.653Z,90
2018-01-30T05:57:23.252Z,90
2018-01-30T05:58:23.283Z,90
2018-01-30T05:59:23.298Z,90
2018-01-30T06:00:23.495Z,90
2018-01-30T06:01:23.461Z,90
2018-01-30T06:02:23.383Z,90
2018-01-30T06:03:23.265Z,90
2018-01-30T06:04:23.340Z,90
2018-01-30T06:05:23.255Z,90
2018-01-30T06:06:24.165Z,90
2018-01-30T06:07:23.239Z,90
2018-01-30T06:08:23.321Z,90
2018-01-30T06:09:23.670Z,90
2018-01-30T06:10:23.366Z,90
2018-01-30T06:11:23.281Z,90
2018-01-30T06:12:23.611Z,90
2018-01-30T06:13:23.299Z,90
2018-01-30T06:14:23.399Z,90
2018-01-30T06:15:23.311Z,90
2018-01-30T06:16:23.342Z,90
2018-01-30T06:17:23.310Z,90
2018-01-30T06:18:23.333Z,90
2018-01-30T06:19:23.734Z,90
2018-01-30T06:20:23.320Z,90
2018-01-30T06:21:23.507Z,91
2018-01-30T06:22:23.541Z,91
2018-01-30T06:23:23.553Z,91
2018-01-30T06:24:23.574Z,91
2018-01-30T06:25:23.693Z,91
2018-01-30T06:26:23.338Z,91
2018-01-30T06:27:23.706Z,91
2018-01-30T06:28:23.780Z,91
2018-01-30T06:29:23.511Z,91
2018-01-30T06:30:23.544Z,91
2018-01-30T06:31:23.458Z,91
2018-01-30T06:32:23.351Z,91
2018-01-30T06:33:23.708Z,90
2018-01-30T06:34:23.366Z,90
2018-01-30T06:35:23.355Z,90
2018-01-30T06:36:23.427Z,90
2018-01-30T06:37:23.322Z,90
2018-01-30T06:38:23.767Z,90
2018-01-30T06:39:23.744Z,90
2018-01-30T06:40:23.784Z,90
2018-01-30T06:41:23.383Z,90
2018-01-30T06:42:23.752Z,90
2018-01-30T06:43:23.764Z,90
2018-01-30T06:44:23.545Z,90
2018-01-30T06:45:23.377Z,90
2018-01-30T06:46:23.369Z,90
2018-01-30T06:47:23.350Z,90
2018-01-30T06:48:23.399Z,90
2018-01-30T06:49:23.306Z,90
2018-01-30T06:50:23.561Z,90
2018-01-30T06:51:23.389Z,90
2018-01-30T06:52:23.747Z,90
2018-01-30T06:53:23.752Z,90
2018-01-30T06:54:23.466Z,90
2018-01-30T06:55:23.783Z,90
2018-01-30T06:56:23.851Z,90
2018-01-30T06:57:23.352Z,90
2018-01-30T06:58:23.386Z,90
2018-01-30T06:59:23.402Z,90
2018-01-30T07:00:23.400Z,90
2018-01-30T07:01:23.555Z,90
2018-01-30T07:02:23.392Z,90
2018-01-30T07:03:23.359Z,90
2018-01-30T07:04:23.472Z,90
2018-01-30T07:05:23.550Z,90
2018-01-30T07:06:23.959Z,90
2018-01-30T07:07:23.592Z,90
2018-01-30T07:08:23.431Z,90
2018-01-30T07:09:23.549Z,90
2018-01-30T07:10:23.632Z,90
2018-01-30T07:11:23.810Z,90
2018-01-30T07:12:23.833Z,90
2018-01-30T07:13:23.922Z,90
2018-01-30T07:14:23.440Z,90
2018-01-30T07:15:23.419Z,90
2018-01-30T07:16:23.454Z,90
2018-01-30T07:17:23.607Z,90
2018-01-30T07:18:23.498Z,90
2018-01-30T07:19:23.835Z,90
2018-01-30T07:20:23.837Z,90
2018-01-30T07:21:23.471Z,90
2018-01-30T07:22:24.162Z,90
2018-01-30T07:23:23.416Z,90
2018-01-30T07:24:23.404Z,90
2018-01-30T07:25:23.489Z,90
2018-01-30T07:26:23.666Z,90
2018-01-30T07:27:23.855Z,90
2018-01-30T07:28:23.461Z,90
2018-01-30T07:30:23.526Z,90
2018-01-30T07:31:23.457Z,90
2018-01-30T07:32:23.490Z,90
2018-01-30T07:33:23.481Z,90
2018-01-30T07:34:23.473Z,90
2018-01-30T07:35:23.613Z,90
2018-01-30T07:36:23.741Z,90
2018-01-30T07:37:23.423Z,90
2018-01-30T07:38:23.474Z,90
2018-01-30T07:39:23.850Z,90
2018-01-30T07:40:23.908Z,90
2018-01-30T07:41:23.883Z,90
2018-01-30T07:42:23.454Z,90
2018-01-30T07:43:23.876Z,90
2018-01-30T07:44:23.500Z,90
2018-01-30T07:45:23.444Z,90
2018-01-30T07:46:23.885Z,90
2018-01-30T07:47:24.527Z,89
2018-01-30T07:48:23.487Z,89
2018-01-30T07:49:23.495Z,89
2018-01-30T07:50:24.062Z,89
2018-01-30T07:51:23.684Z,89
2018-01-30T07:52:23.788Z,89
2018-01-30T07:53:23.882Z,89
2018-01-30T07:54:24.375Z,89
2018-01-30T07:55:23.672Z,89
2018-01-30T07:56:23.571Z,89
2018-01-30T07:57:23.677Z,89
2018-01-30T07:58:23.508Z,89
2018-01-30T07:59:23.654Z,89
2018-01-30T08:00:23.693Z,89
2018-01-30T08:01:23.522Z,89
2018-01-30T08:02:23.489Z,88
2018-01-30T08:03:23.520Z,88
2018-01-30T08:04:23.668Z,88
2018-01-30T08:05:23.500Z,89
2018-01-30T08:06:23.855Z,89
2018-01-30T08:07:23.486Z,89
2018-01-30T08:08:23.924Z,89
2018-01-30T08:09:23.920Z,89
2018-01-30T08:10:23.862Z,89
2018-01-30T08:11:23.549Z,89
2018-01-30T08:12:41.839Z,89
2018-01-30T08:13:41.590Z,89
2018-01-30T08:14:41.621Z,89
2018-01-30T08:15:42.134Z,88
2018-01-30T08:16:41.746Z,88
2018-01-30T08:17:42.019Z,89
2018-01-30T08:18:42.455Z,89
2018-01-30T08:19:41.764Z,89
2018-01-30T08:20:41.992Z,89
2018-01-30T08:21:41.609Z,89
2018-01-30T08:22:41.593Z,89
2018-01-30T08:23:41.589Z,89
2018-01-30T08:24:41.675Z,89
2018-01-30T08:25:41.678Z,89
2018-01-30T08:26:42.280Z,89
2018-01-30T08:27:41.784Z,89
2018-01-30T08:28:41.625Z,89
2018-01-30T08:29:41.616Z,89
2018-01-30T08:30:41.824Z,89
2018-01-30T08:31:42.058Z,89
2018-01-30T08:32:41.593Z,89
2018-01-30T08:34:41.804Z,89
2018-01-30T08:35:41.647Z,89
2018-01-30T08:36:42.016Z,89
2018-01-30T08:37:41.604Z,89
2018-01-30T08:38:42.076Z,89
2018-01-30T08:39:41.637Z,89
2018-01-30T08:40:41.725Z,88
2018-01-30T08:41:42.054Z,88
2018-01-30T08:42:45.454Z,88
2018-01-30T08:43:42.061Z,87
2018-01-30T08:44:41.864Z,87
2018-01-30T08:46:41.885Z,87
2018-01-30T08:47:41.732Z,87
2018-01-30T08:48:41.697Z,87
2018-01-30T08:49:41.735Z,87
2018-01-30T08:50:42.116Z,85
2018-01-30T08:51:41.735Z,85
2018-01-30T08:52:42.104Z,85
2018-01-30T08:53:41.695Z,84
2018-01-30T08:54:41.870Z,84
2018-01-30T08:55:42.098Z,84
2018-01-30T08:56:41.934Z,85
2018-01-30T08:57:41.718Z,85
2018-01-30T08:58:43.661Z,85
2018-01-30T08:59:41.683Z,85
2018-01-30T09:00:42.086Z,85
2018-01-30T09:01:41.717Z,85
2018-01-30T09:02:41.827Z,85
2018-01-30T09:03:41.831Z,82
2018-01-30T09:04:42.075Z,82
2018-01-30T09:05:41.690Z,82
2018-01-30T09:06:42.126Z,82
2018-01-30T09:07:41.678Z,82
2018-01-30T09:08:41.918Z,81
2018-01-30T09:09:41.738Z,81
2018-01-30T09:10:42.536Z,81
2018-01-30T09:11:41.970Z,80
2018-01-30T09:12:41.730Z,80
2018-01-30T09:13:41.831Z,80
2018-01-30T09:14:42.142Z,80
2018-01-30T09:15:41.749Z,80
2018-01-30T09:16:41.897Z,80
2018-01-30T09:17:41.923Z,80
2018-01-30T09:18:42.266Z,80
2018-01-30T09:19:42.171Z,80
2018-01-30T09:20:41.765Z,80
2018-01-30T09:22:42.107Z,80
2018-01-30T09:23:41.958Z,80
2018-01-30T09:24:41.759Z,80
2018-01-30T09:25:41.989Z,80
2018-01-30T09:26:41.980Z,79
2018-01-30T09:27:41.724Z,79
2018-01-30T09:28:41.780Z,79
2018-01-30T09:29:41.801Z,79
2018-01-30T09:30:42.011Z,79
2018-01-30T09:31:41.802Z,78
2018-01-30T09:32:41.992Z,78
2018-01-30T09:33:42.198Z,78
2018-01-30T09:34:41.681Z,79
2018-01-30T09:35:42.127Z,79
2018-01-30T09:36:42.124Z,79
2018-01-30T09:37:41.724Z,79
2018-01-30T09:38:41.726Z,79
2018-01-30T09:39:42.156Z,80
2018-01-30T09:40:41.895Z,80
2018-01-30T09:41:42.122Z,79
2018-01-30T09:42:41.765Z,79
2018-01-30T09:43:42.541Z,79
2018-01-30T09:44:42.157Z,79
2018-01-30T09:45:42.144Z,79
2018-01-30T09:46:42.101Z,79
2018-01-30T09:49:41.802Z,79
2018-01-30T09:50:41.967Z,79
2018-01-30T09:51:41.749Z,80
2018-01-30T09:52:41.956Z,80
2018-01-30T09:53:42.167Z,80
2018-01-30T09:54:41.766Z,79
2018-01-30T09:55:42.187Z,79
2018-01-30T09:56:41.744Z,79
2018-01-30T09:57:42.777Z,79
2018-01-30T09:58:41.735Z,79
2018-01-30T09:59:43.954Z,79
2018-01-30T10:00:41.953Z,79
2018-01-30T10:01:41.778Z,79
2018-01-30T10:03:41.981Z,78
2018-01-30T10:05:42.005Z,78
2018-01-30T10:06:42.258Z,78
2018-01-30T10:07:42.166Z,78
2018-01-30T10:08:42.172Z,78
2018-01-30T10:09:41.955Z,78
2018-01-30T10:10:42.419Z,78
2018-01-30T10:11:41.744Z,78
2018-01-30T10:12:43.011Z,79
2018-01-30T10:13:42.178Z,79
2018-01-30T10:14:42.206Z,78
2018-01-30T10:15:41.834Z,78
2018-01-30T10:16:41.843Z,78
2018-01-30T10:17:41.852Z,77
2018-01-30T10:18:41.861Z,77
2018-01-30T10:19:41.812Z,78
2018-01-30T10:20:41.793Z,78
2018-01-30T10:21:41.887Z,78
2018-01-30T10:22:41.821Z,78
2018-01-30T10:24:41.812Z,77
2018-01-30T10:25:41.806Z,77
2018-01-30T10:26:41.814Z,77
2018-01-30T10:27:41.930Z,77
2018-01-30T10:28:42.031Z,77
2018-01-30T10:29:41.831Z,77
2018-01-30T10:30:41.836Z,77
2018-01-30T10:31:41.868Z,77
2018-01-30T10:32:41.809Z,77
2018-01-30T10:33:42.023Z,77
2018-01-30T10:34:42.242Z,77
2018-01-30T10:35:42.371Z,77
2018-01-30T10:36:41.857Z,77
2018-01-30T10:37:42.082Z,77
2018-01-30T10:38:41.860Z,77
2018-01-30T10:39:41.817Z,77
2018-01-30T10:40:42.323Z,77
2018-01-30T10:41:42.246Z,77
2018-01-30T10:42:42.257Z,76
2018-01-30T10:43:42.253Z,76
2018-01-30T10:44:41.990Z,76
2018-01-30T10:45:42.965Z,77
2018-01-30T10:46:42.228Z,77
2018-01-30T10:47:41.828Z,77
2018-01-30T10:48:41.853Z,77
2018-01-30T10:49:41.806Z,77
2018-01-30T10:50:42.022Z,77
2018-01-30T10:51:41.833Z,77
2018-01-30T10:52:42.600Z,77
2018-01-30T10:53:41.850Z,77
2018-01-30T10:56:42.181Z,77
2018-01-30T10:57:42.552Z,77
2018-01-30T10:58:41.877Z,77
2018-01-30T11:00:44.471Z,76
2018-01-30T11:01:42.085Z,76
2018-01-30T11:02:42.025Z,76
2018-01-30T11:03:41.858Z,76
2018-01-30T11:04:41.866Z,76
2018-01-30T11:05:41.864Z,76
2018-01-30T11:06:42.293Z,76
2018-01-30T11:07:42.063Z,76
2018-01-30T11:08:42.315Z,75
2018-01-30T11:09:42.066Z,75
2018-01-30T11:10:42.055Z,75
2018-01-30T11:11:42.159Z,75
2018-01-30T11:12:41.924Z,75
2018-01-30T11:13:42.132Z,75
2018-01-30T11:14:41.997Z,75
2018-01-30T11:15:42.168Z,75
2018-01-30T11:16:41.940Z,75
2018-01-30T11:18:42.131Z,75
2018-01-30T11:19:42.347Z,75
2018-01-30T11:20:41.912Z,75
2018-01-30T11:21:42.315Z,75
2018-01-30T11:22:42.125Z,75
2018-01-30T11:23:42.073Z,74
2018-01-30T11:24:42.337Z,74
2018-01-30T11:25:42.305Z,75
2018-01-30T11:27:41.939Z,75
2018-01-30T11:28:42.000Z,73
2018-01-30T11:29:42.311Z,73
2018-01-30T11:30:42.150Z,73
2018-01-30T11:32:42.595Z,74
2018-01-30T11:33:41.928Z,75
2018-01-30T11:34:42.356Z,75
2018-01-30T11:35:42.150Z,75
2018-01-30T11:36:41.948Z,75
2018-01-30T11:37:41.896Z,75
2018-01-30T11:38:41.947Z,75
2018-01-30T11:39:41.912Z,75
2018-01-30T11:40:42.122Z,75
2018-01-30T11:41:42.313Z,75
2018-01-30T11:42:41.957Z,75
2018-01-30T11:43:41.915Z,75
2018-01-30T11:44:42.121Z,75
2018-01-30T11:45:42.358Z,75
2018-01-30T11:46:42.337Z,76
2018-01-30T11:47:42.155Z,76
2018-01-30T11:48:42.818Z,76
2018-01-30T11:49:42.352Z,76
2018-01-30T11:50:42.351Z,76
2018-01-30T11:51:42.014Z,76
2018-01-30T11:52:42.425Z,76
2018-01-30T11:54:42.037Z,77
2018-01-30T11:55:42.006Z,77
2018-01-30T11:56:42.641Z,77
2018-01-30T11:57:42.185Z,77
2018-01-30T11:58:42.038Z,77
2018-01-30T12:00:42.391Z,76
2018-01-30T12:03:42.983Z,76
2018-01-30T12:04:41.965Z,77
2018-01-30T12:05:42.412Z,77
2018-01-30T12:06:41.976Z,77
2018-01-30T12:07:41.980Z,77
2018-01-30T12:08:42.182Z,77
2018-01-30T12:09:42.023Z,77
2018-01-30T12:10:42.053Z,77
2018-01-30T12:11:41.987Z,77
2018-01-30T12:12:42.026Z,77
2018-01-30T12:13:42.437Z,77
2018-01-30T12:14:42.464Z,77
2018-01-30T12:15:42.362Z,77
2018-01-30T12:16:42.384Z,77
2018-01-30T12:17:42.435Z,77
2018-01-30T12:18:42.007Z,77
2018-01-30T12:19:42.031Z,77
2018-01-30T12:20:42.437Z,77
2018-01-30T12:21:42.464Z,77
2018-01-30T12:22:42.266Z,77
2018-01-30T12:23:42.020Z,77
2018-01-30T12:24:42.007Z,77
2018-01-30T12:25:42.463Z,77
2018-01-30T12:26:42.064Z,78
2018-01-30T12:27:42.081Z,78
2018-01-30T12:28:42.242Z,78
2018-01-30T12:29:42.411Z,77
2018-01-30T12:30:42.074Z,77
2018-01-30T12:31:42.592Z,77
2018-01-30T12:32:42.126Z,78
2018-01-30T12:33:42.446Z,78
2018-01-30T12:34:42.089Z,77
2018-01-30T12:35:42.236Z,77
2018-01-30T12:36:42.270Z,77
2018-01-30T12:37:42.045Z,77
2018-01-30T12:38:42.478Z,77
2018-01-30T12:39:42.238Z,77
2018-01-30T12:40:42.439Z,77
2018-01-30T12:41:42.304Z,77
2018-01-30T12:42:42.104Z,77
2018-01-30T12:43:42.067Z,77
2018-01-30T12:44:42.263Z,77
2018-01-30T12:45:42.097Z,77
2018-01-30T12:46:42.083Z,77
2018-01-30T12:47:42.073Z,77
2018-01-30T12:48:42.283Z,77
2018-01-30T12:49:42.071Z,78
2018-01-30T12:51:42.501Z,78
2018-01-30T12:52:42.094Z,78
2018-01-30T12:53:42.268Z,78
2018-01-30T12:54:42.446Z,77
2018-01-30T12:55:42.050Z,77
2018-01-30T12:56:42.078Z,77
2018-01-30T12:57:42.278Z,77
2018-01-30T12:58:42.141Z,77
2018-01-30T12:59:42.466Z,77
2018-01-30T13:00:42.060Z,77
2018-01-30T13:01:42.545Z,77
2018-01-30T13:02:44.743Z,77
2018-01-30T13:03:42.314Z,77
2018-01-30T13:04:42.172Z,77
2018-01-30T13:05:42.148Z,77
2018-01-30T13:06:42.098Z,77
2018-01-30T13:07:42.712Z,78
2018-01-30T13:08:42.161Z,78
2018-01-30T13:09:42.402Z,78
2018-01-30T13:10:42.131Z,78
2018-01-30T13:11:42.615Z,78
2018-01-30T13:12:42.537Z,77
2018-01-30T13:13:42.199Z,77
2018-01-30T13:14:42.160Z,77
2018-01-30T13:16:42.521Z,77
2018-01-30T13:17:42.925Z,77
2018-01-30T13:18:42.566Z,77
2018-01-30T13:19:43.585Z,77
2018-01-30T13:20:42.539Z,77
2018-01-30T13:22:43.055Z,77
2018-01-30T13:23:42.167Z,77
2018-01-30T13:24:42.561Z,77
2018-01-30T13:25:42.620Z,77
2018-01-30T13:26:42.147Z,77
2018-01-30T13:27:42.156Z,77
2018-01-30T13:28:42.159Z,77
2018-01-30T13:29:42.250Z,77
2018-01-30T13:31:42.879Z,76
2018-01-30T13:32:42.357Z,76
2018-01-30T13:33:42.451Z,76
2018-01-30T13:34:42.176Z,76
2018-01-30T13:35:42.242Z,76
2018-01-30T13:37:42.590Z,76
2018-01-30T13:38:42.356Z,76
2018-01-30T13:39:42.717Z,76
2018-01-30T13:41:42.616Z,75
2018-01-30T13:42:42.549Z,75
2018-01-30T13:43:42.416Z,75
2018-01-30T13:44:42.616Z,75
2018-01-30T13:45:42.974Z,75
2018-01-30T13:46:42.192Z,75
2018-01-30T13:47:42.425Z,75
2018-01-30T13:48:42.219Z,75
2018-01-30T13:49:42.635Z,75
2018-01-30T13:50:42.848Z,73
2018-01-30T13:51:43.026Z,73
2018-01-30T13:52:42.406Z,73
2018-01-30T13:53:42.262Z,74
2018-01-30T13:54:42.245Z,74
2018-01-30T13:55:42.914Z,74
2018-01-30T13:56:42.207Z,74
2018-01-30T13:57:43.890Z,74
2018-01-30T13:58:42.177Z,73
2018-01-30T13:59:42.304Z,73
2018-01-30T14:00:42.252Z,73
2018-01-30T14:01:42.244Z,73
2018-01-30T14:02:42.204Z,73
2018-01-30T14:04:42.391Z,73
2018-01-30T14:05:42.879Z,73
2018-01-30T14:06:42.622Z,74
2018-01-30T14:07:42.204Z,74
2018-01-30T14:08:42.652Z,75
2018-01-30T14:09:42.297Z,75
2018-01-30T14:11:42.259Z,75
2018-01-30T14:12:42.442Z,75
2018-01-30T14:13:42.661Z,74
2018-01-30T14:14:42.606Z,74
2018-01-30T14:15:42.432Z,74
2018-01-30T14:16:42.282Z,74
2018-01-30T14:17:42.683Z,74
2018-01-30T14:18:42.269Z,74
2018-01-30T14:19:42.682Z,74
2018-01-30T14:20:42.416Z,74
2018-01-30T14:21:42.313Z,74
2018-01-30T14:23:42.324Z,74
2018-01-30T14:24:42.703Z,74
2018-01-30T14:25:42.475Z,74
2018-01-30T14:26:42.461Z,74
2018-01-30T14:27:43.247Z,74
2018-01-30T14:28:42.674Z,74
2018-01-30T14:29:42.686Z,74
2018-01-30T14:30:42.440Z,74
2018-01-30T14:31:42.347Z,74
2018-01-30T14:32:42.295Z,74
2018-01-30T14:33:42.493Z,74
2018-01-30T14:34:42.697Z,75
2018-01-30T14:35:42.533Z,75
2018-01-30T14:37:42.319Z,74
2018-01-30T14:38:42.297Z,74
2018-01-30T14:39:42.777Z,74
2018-01-30T14:40:42.246Z,74
2018-01-30T14:41:43.111Z,73
2018-01-30T14:42:42.304Z,73
2018-01-30T14:43:42.745Z,73
2018-01-30T14:44:42.754Z,73
2018-01-30T14:45:42.348Z,73
2018-01-30T14:46:42.329Z,72
2018-01-30T14:48:42.667Z,72
2018-01-30T14:49:42.373Z,72
2018-01-30T14:50:42.373Z,72
2018-01-30T14:51:42.530Z,72
2018-01-30T14:52:42.738Z,72
2018-01-30T14:54:42.318Z,72
2018-01-30T14:55:42.756Z,72
2018-01-30T14:56:42.721Z,72
2018-01-30T14:57:42.990Z,72
2018-01-30T14:58:42.544Z,72
2018-01-30T14:59:42.444Z,73
2018-01-30T15:00:42.499Z,73
2018-01-30T15:01:42.376Z,73
2018-01-30T15:02:42.733Z,73
2018-01-30T15:03:42.458Z,73
2018-01-30T15:04:45.415Z,73
2018-01-30T15:05:43.154Z,73
2018-01-30T15:06:42.720Z,73
2018-01-30T15:07:42.360Z,73
2018-01-30T15:08:42.759Z,73
2018-01-30T15:09:42.360Z,74
2018-01-30T15:10:42.400Z,74
2018-01-30T15:11:42.352Z,74